This is the latest recevied weather packets stored in our database for station/object TK5EP-13. If no packets are shown the sender has not sent any weather packets the latest 1 day(s).
| Time | Temp. | Humidity | Pressure | Rain* | Wind** | Luminosity | Snow |
|---|---|---|---|---|---|---|---|
| 1778020251 | 12.78° C | 96% | - | - | 8.49 m/s, 193° | - | - |
| 1778019947 | 12.78° C | 95% | - | - | 5.36 m/s, 173° | - | - |
| 1778019646 | 12.78° C | 95% | - | - | 6.26 m/s, 178° | - | - |
| 1778019345 | 12.78° C | 95% | - | - | 3.13 m/s, 181° | - | - |
| 1778019044 | 12.78° C | 95% | - | - | 4.47 m/s, 172° | - | - |
| 1778018741 | 12.78° C | 95% | - | - | 3.58 m/s, 162° | - | - |
| 1778018439 | 12.78° C | 95% | - | - | 4.92 m/s, 155° | - | - |
| 1778018139 | 12.78° C | 95% | - | - | 5.81 m/s, 166° | - | - |
| 1778017838 | 12.78° C | 95% | - | - | 4.47 m/s, 133° | - | - |
| 1778017537 | 12.78° C | 95% | - | - | 3.58 m/s, 140° | - | - |
| 1778017236 | 12.78° C | 95% | - | - | 4.47 m/s, 142° | - | - |
| 1778016935 | 12.78° C | 95% | - | - | 2.68 m/s, 105° | - | - |
| 1778016634 | 12.78° C | 95% | - | - | 2.68 m/s, 110° | - | - |
| 1778016334 | 12.78° C | 95% | - | - | 2.68 m/s, 103° | - | - |
| 1778016033 | 12.78° C | 95% | - | - | 3.13 m/s, 116° | - | - |
| 1778015729 | 12.78° C | 95% | - | - | 2.68 m/s, 100° | - | - |
| 1778015428 | 12.78° C | 95% | - | - | 3.13 m/s, 100° | - | - |
| 1778015127 | 12.78° C | 95% | - | - | 3.58 m/s, 117° | - | - |
| 1778014826 | 12.78° C | 95% | - | - | 3.58 m/s, 125° | - | - |
| 1778014524 | 12.78° C | 95% | - | - | 2.24 m/s, 111° | - | - |
| 1778014223 | 13.33° C | 95% | - | - | 2.24 m/s, 115° | - | - |
| 1778013923 | 12.78° C | 95% | - | - | 2.24 m/s, 104° | - | - |
| 1778013622 | 12.78° C | 94% | - | - | 3.58 m/s, 138° | - | - |
| 1778013318 | 13.33° C | 95% | - | - | 2.68 m/s, 115° | - | - |
| 1778013017 | 13.33° C | 95% | - | - | 3.58 m/s, 136° | - | - |
* Rain since midnight (hover to see other rain measurements)
** Current wind speed in m/s (hover to see current wind gust speed)